Time;durP1;ratioP1;P1;durP2;ratioP2;P2;SDS_P1;SDS_P2;PMS_P1;PMS_P2;Temp;Humidity;BMP_temperature;BMP_pressure;BME280_temperature;BME280_humidity;BME280_pressure;Samples;Min_cycle;Max_cycle;Signal;HPM_P1;HPM_P2
2021/12/10 00:02:06;;;;;;;1.10;0.70;;;;;;;;;;5057052;28;20464;-79
2021/12/10 00:04:35;;;;;;;1.30;0.80;;;;;;;;;;5074884;28;20409;-78
2021/12/10 00:07:04;;;;;;;1.40;0.80;;;;;;;;;;5075086;28;20906;-78
2021/12/10 00:09:34;;;;;;;2.57;0.80;;;;;;;;;;5074595;28;20469;-79
2021/12/10 00:12:06;;;;;;;1.20;0.70;;;;;;;;;;5075019;28;20417;-78
2021/12/10 00:14:32;;;;;;;1.40;0.90;;;;;;;;;;5056765;28;20638;-79
2021/12/10 00:17:00;;;;;;;1.23;0.80;;;;;;;;;;5074746;28;20523;-79
2021/12/10 00:19:37;;;;;;;1.47;0.80;;;;;;;;;;5074475;28;20430;-79
2021/12/10 00:22:08;;;;;;;1.03;0.60;;;;;;;;;;5056597;28;20755;-79
2021/12/10 00:24:34;;;;;;;2.30;0.77;;;;;;;;;;5056634;28;20418;-78
2021/12/10 00:27:04;;;;;;;1.47;0.70;;;;;;;;;;5074640;28;20410;-79
2021/12/10 00:29:30;;;;;;;1.30;0.70;;;;;;;;;;5073999;28;20422;-78
2021/12/10 00:32:01;;;;;;;2.60;0.70;;;;;;;;;;5074745;28;20489;-78
2021/12/10 00:34:27;;;;;;;1.50;0.70;;;;;;;;;;5056375;28;20422;-79
2021/12/10 00:36:54;;;;;;;1.67;0.80;;;;;;;;;;5074367;28;20450;-79
2021/12/10 00:39:22;;;;;;;1.10;0.67;;;;;;;;;;5073989;28;20549;-78
2021/12/10 00:41:49;;;;;;;1.30;0.60;;;;;;;;;;5074441;28;20747;-78
2021/12/10 00:44:15;;;;;;;1.23;0.50;;;;;;;;;;5074182;28;20395;-79
2021/12/10 00:46:41;;;;;;;1.30;0.80;;;;;;;;;;5074018;28;20402;-79
2021/12/10 00:49:08;;;;;;;2.17;0.77;;;;;;;;;;5055898;28;20426;-80
2021/12/10 00:51:35;;;;;;;1.93;0.60;;;;;;;;;;5056046;28;20494;-78
2021/12/10 00:54:02;;;;;;;1.67;0.80;;;;;;;;;;5056457;28;20744;-78
2021/12/10 00:56:28;;;;;;;1.20;0.70;;;;;;;;;;5073965;28;20414;-78
2021/12/10 00:58:54;;;;;;;1.40;0.70;;;;;;;;;;5074035;28;20445;-78
2021/12/10 01:01:24;;;;;;;1.40;0.70;;;;;;;;;;5073418;28;20880;-79
2021/12/10 01:03:54;;;;;;;1.07;0.60;;;;;;;;;;5074218;28;20487;-79
2021/12/10 01:06:21;;;;;;;1.00;0.60;;;;;;;;;;5055838;28;20411;-79
2021/12/10 01:08:49;;;;;;;1.20;0.60;;;;;;;;;;5074008;28;20422;-79
2021/12/10 01:11:19;;;;;;;0.90;0.53;;;;;;;;;;5073670;28;20408;-79
2021/12/10 01:13:48;;;;;;;1.00;0.60;;;;;;;;;;5074328;28;20890;-78
2021/12/10 01:24:50;;;;;;;0.97;0.50;;;;;;;;;;5073904;28;20394;-80
2021/12/10 01:27:32;;;;;;;4.47;0.70;;;;;;;;;;5073424;28;20410;-80
2021/12/10 01:30:00;;;;;;;1.10;0.60;;;;;;;;;;5073116;28;20433;-81
2021/12/10 01:32:29;;;;;;;1.03;0.70;;;;;;;;;;5073469;28;20403;-79
2021/12/10 01:34:55;;;;;;;1.00;0.67;;;;;;;;;;5073375;28;20399;-80
2021/12/10 01:37:22;;;;;;;2.17;0.60;;;;;;;;;;5055613;28;20829;-79
2021/12/10 01:39:48;;;;;;;1.73;0.70;;;;;;;;;;5055223;28;20869;-79
2021/12/10 01:42:29;;;;;;;1.50;0.63;;;;;;;;;;5073622;28;21035;-79
2021/12/10 01:44:57;;;;;;;0.90;0.50;;;;;;;;;;5073513;28;20493;-79
2021/12/10 01:47:25;;;;;;;0.90;0.50;;;;;;;;;;5073085;28;20406;-79
2021/12/10 01:49:51;;;;;;;1.33;0.70;;;;;;;;;;5072466;28;20847;-79
2021/12/10 01:52:18;;;;;;;1.40;0.70;;;;;;;;;;5072760;28;20407;-79
2021/12/10 01:54:52;;;;;;;1.20;0.70;;;;;;;;;;5072926;28;20411;-79
2021/12/10 01:57:20;;;;;;;1.20;0.67;;;;;;;;;;5054385;28;20451;-79
2021/12/10 01:59:46;;;;;;;1.20;0.60;;;;;;;;;;5072462;28;20439;-79
2021/12/10 02:02:15;;;;;;;1.10;0.60;;;;;;;;;;5072591;28;20481;-79
2021/12/10 02:04:42;;;;;;;1.10;0.60;;;;;;;;;;5054535;28;20747;-80
2021/12/10 02:07:10;;;;;;;1.40;0.70;;;;;;;;;;5072661;28;20403;-79
2021/12/10 02:09:36;;;;;;;1.17;0.60;;;;;;;;;;5072035;28;20546;-79
2021/12/10 02:12:02;;;;;;;1.10;0.60;;;;;;;;;;5072509;28;20418;-78
2021/12/10 02:14:28;;;;;;;1.87;0.60;;;;;;;;;;5054520;28;20495;-78
2021/12/10 02:16:59;;;;;;;0.90;0.50;;;;;;;;;;5054345;28;20974;-78
2021/12/10 02:19:25;;;;;;;1.00;0.60;;;;;;;;;;5071981;28;20433;-79
2021/12/10 02:21:51;;;;;;;0.90;0.50;;;;;;;;;;5072510;28;20550;-78
2021/12/10 02:24:18;;;;;;;0.90;0.60;;;;;;;;;;5072151;28;20433;-78
2021/12/10 02:26:49;;;;;;;1.00;0.60;;;;;;;;;;5054246;28;20425;-78
2021/12/10 02:29:16;;;;;;;1.30;0.60;;;;;;;;;;5053897;28;20428;-78
2021/12/10 02:31:42;;;;;;;1.40;0.67;;;;;;;;;;5072249;28;20460;-78
2021/12/10 02:34:09;;;;;;;1.70;0.80;;;;;;;;;;5072078;28;20766;-78
2021/12/10 02:36:41;;;;;;;1.17;0.70;;;;;;;;;;5072108;28;20391;-78
2021/12/10 02:39:08;;;;;;;1.53;0.70;;;;;;;;;;5054032;28;20431;-79
2021/12/10 02:41:35;;;;;;;0.90;0.60;;;;;;;;;;5072325;28;20502;-78
2021/12/10 02:44:02;;;;;;;0.90;0.50;;;;;;;;;;5053990;28;20406;-78
2021/12/10 02:46:28;;;;;;;2.07;0.70;;;;;;;;;;5054174;28;20422;-78
2021/12/10 02:48:54;;;;;;;1.00;0.60;;;;;;;;;;5071843;28;20963;-78
2021/12/10 02:51:21;;;;;;;1.63;0.70;;;;;;;;;;5071569;28;20410;-78
2021/12/10 02:53:47;;;;;;;1.50;0.70;;;;;;;;;;5071785;28;20461;-79
2021/12/10 02:56:15;;;;;;;1.00;0.50;;;;;;;;;;5071843;28;20405;-78
2021/12/10 02:58:41;;;;;;;0.90;0.50;;;;;;;;;;5071677;28;20512;-79
2021/12/10 03:01:09;;;;;;;1.03;0.57;;;;;;;;;;5071868;28;20415;-80
2021/12/10 03:03:37;;;;;;;1.00;0.60;;;;;;;;;;5072104;28;20905;-80
2021/12/10 03:06:09;;;;;;;1.00;0.50;;;;;;;;;;5071553;28;20756;-80
2021/12/10 03:08:35;;;;;;;1.10;0.60;;;;;;;;;;5070757;28;20472;-79
2021/12/10 03:11:01;;;;;;;2.70;0.50;;;;;;;;;;5071531;28;20419;-78
2021/12/10 03:13:27;;;;;;;1.30;0.50;;;;;;;;;;5054062;28;20410;-78
2021/12/10 03:15:54;;;;;;;1.10;0.70;;;;;;;;;;5071903;28;20540;-78
2021/12/10 03:18:20;;;;;;;0.90;0.50;;;;;;;;;;5071778;28;20802;-80
2021/12/10 03:20:46;;;;;;;0.90;0.50;;;;;;;;;;5073061;28;20403;-80
2021/12/10 03:23:13;;;;;;;0.90;0.50;;;;;;;;;;5072493;28;20415;-79
2021/12/10 03:25:40;;;;;;;1.40;0.70;;;;;;;;;;5071769;28;20908;-79
2021/12/10 03:28:07;;;;;;;1.07;0.80;;;;;;;;;;5054468;28;20422;-80
2021/12/10 03:30:35;;;;;;;0.90;0.50;;;;;;;;;;5054539;28;20434;-80
2021/12/10 03:33:01;;;;;;;0.90;0.60;;;;;;;;;;5072836;28;20403;-80
2021/12/10 03:35:31;;;;;;;1.00;0.60;;;;;;;;;;5072928;28;20449;-80
2021/12/10 03:37:58;;;;;;;1.30;0.60;;;;;;;;;;5073258;28;21108;-80
2021/12/10 03:40:25;;;;;;;0.90;0.50;;;;;;;;;;5072511;28;20430;-80
2021/12/10 03:42:58;;;;;;;1.17;0.67;;;;;;;;;;5054418;28;20411;-80
2021/12/10 03:45:24;;;;;;;1.87;0.70;;;;;;;;;;5128299;22;20925;-75
2021/12/10 03:47:50;;;;;;;1.77;0.60;;;;;;;;;;5112044;28;20488;-76
2021/12/10 03:50:21;;;;;;;1.27;0.70;;;;;;;;;;5111992;28;20895;-76
2021/12/10 03:52:48;;;;;;;1.00;0.60;;;;;;;;;;5110941;28;20508;-75
2021/12/10 03:55:14;;;;;;;1.13;0.60;;;;;;;;;;5111696;28;20848;-75
2021/12/10 03:57:41;;;;;;;0.90;0.50;;;;;;;;;;5111838;28;20452;-76
2021/12/10 04:00:07;;;;;;;1.10;0.67;;;;;;;;;;5111737;28;20397;-76
2021/12/10 04:02:33;;;;;;;0.90;0.57;;;;;;;;;;5110788;28;21007;-75
2021/12/10 04:04:59;;;;;;;1.07;0.60;;;;;;;;;;5111935;28;20560;-75
2021/12/10 04:07:26;;;;;;;1.07;0.70;;;;;;;;;;5112657;28;20416;-75
2021/12/10 04:09:53;;;;;;;1.10;0.70;;;;;;;;;;5112173;28;20409;-75
2021/12/10 04:12:19;;;;;;;1.00;0.60;;;;;;;;;;5112436;28;20404;-76
2021/12/10 04:14:46;;;;;;;0.90;0.50;;;;;;;;;;5112382;28;20427;-76
2021/12/10 04:17:12;;;;;;;1.30;0.57;;;;;;;;;;5112119;28;20532;-76
2021/12/10 04:19:39;;;;;;;1.00;0.60;;;;;;;;;;5111847;28;20409;-76
2021/12/10 04:22:07;;;;;;;1.10;0.70;;;;;;;;;;5116103;28;20453;-75
2021/12/10 04:24:35;;;;;;;1.40;0.67;;;;;;;;;;5115599;28;20420;-76
2021/12/10 04:27:01;;;;;;;1.00;0.70;;;;;;;;;;5114139;28;20420;-76
2021/12/10 04:29:27;;;;;;;1.00;0.60;;;;;;;;;;5115339;28;20405;-76
2021/12/10 04:31:55;;;;;;;1.00;0.50;;;;;;;;;;5113980;28;20417;-76
2021/12/10 04:34:22;;;;;;;1.00;0.60;;;;;;;;;;5114951;28;20429;-76
2021/12/10 04:36:49;;;;;;;0.90;0.50;;;;;;;;;;5114043;28;20424;-75
2021/12/10 04:39:15;;;;;;;1.33;0.60;;;;;;;;;;5115004;28;20500;-76
2021/12/10 04:41:41;;;;;;;1.20;0.50;;;;;;;;;;5115359;28;20906;-76
2021/12/10 04:44:07;;;;;;;1.30;0.60;;;;;;;;;;5114742;28;20791;-77
2021/12/10 04:46:34;;;;;;;1.47;0.70;;;;;;;;;;5113664;28;20414;-76
2021/12/10 04:49:01;;;;;;;0.90;0.50;;;;;;;;;;5115082;28;20450;-77
2021/12/10 04:51:29;;;;;;;0.90;0.50;;;;;;;;;;5113292;28;20496;-76
2021/12/10 04:53:56;;;;;;;1.10;0.60;;;;;;;;;;5114624;28;20429;-77
2021/12/10 04:56:23;;;;;;;1.00;0.50;;;;;;;;;;5114644;28;20822;-76
2021/12/10 04:58:49;;;;;;;1.30;0.70;;;;;;;;;;5112486;28;20448;-77
2021/12/10 05:01:16;;;;;;;1.00;0.60;;;;;;;;;;5111884;28;20760;-77
2021/12/10 05:03:42;;;;;;;1.00;0.50;;;;;;;;;;5113530;28;20507;-77
2021/12/10 05:06:08;;;;;;;1.30;0.50;;;;;;;;;;5113295;28;20814;-77
2021/12/10 05:08:35;;;;;;;1.00;0.60;;;;;;;;;;5113334;28;20484;-77
2021/12/10 05:11:02;;;;;;;0.90;0.60;;;;;;;;;;5114297;28;20499;-77
2021/12/10 05:13:28;;;;;;;1.00;0.60;;;;;;;;;;5115019;28;20806;-77
2021/12/10 05:15:58;;;;;;;1.20;0.60;;;;;;;;;;5114993;28;20451;-76
2021/12/10 05:18:25;;;;;;;0.90;0.60;;;;;;;;;;5114944;28;20505;-76
2021/12/10 05:20:51;;;;;;;0.90;0.50;;;;;;;;;;5114482;28;20409;-76
2021/12/10 05:23:17;;;;;;;0.90;0.50;;;;;;;;;;5114865;28;20402;-76
2021/12/10 05:25:44;;;;;;;1.30;0.60;;;;;;;;;;5114715;28;20409;-77
2021/12/10 05:28:10;;;;;;;1.00;0.60;;;;;;;;;;5114931;28;20491;-76
2021/12/10 05:30:37;;;;;;;0.90;0.60;;;;;;;;;;5114456;28;20465;-76
2021/12/10 05:33:04;;;;;;;1.00;0.50;;;;;;;;;;5113863;28;20485;-77
2021/12/10 05:35:31;;;;;;;1.57;0.70;;;;;;;;;;5114695;28;20983;-76
2021/12/10 05:37:57;;;;;;;0.90;0.50;;;;;;;;;;5114454;28;20452;-76
2021/12/10 05:40:24;;;;;;;0.90;0.50;;;;;;;;;;5113514;28;20907;-75
2021/12/10 05:42:50;;;;;;;2.90;0.70;;;;;;;;;;5114352;28;20425;-76
2021/12/10 05:45:18;;;;;;;2.23;0.80;;;;;;;;;;5112478;28;20452;-76
2021/12/10 05:47:44;;;;;;;1.60;1.00;;;;;;;;;;5113730;28;20413;-77
2021/12/10 05:50:11;;;;;;;0.90;0.50;;;;;;;;;;5113465;28;20410;-76
2021/12/10 05:52:37;;;;;;;1.60;0.73;;;;;;;;;;5113734;28;20401;-76
2021/12/10 05:55:04;;;;;;;1.57;0.60;;;;;;;;;;5113363;28;20427;-76
2021/12/10 05:57:30;;;;;;;0.90;0.50;;;;;;;;;;5113470;28;21026;-76
2021/12/10 05:59:56;;;;;;;1.20;0.47;;;;;;;;;;5113014;28;20425;-76
2021/12/10 06:02:23;;;;;;;1.27;0.67;;;;;;;;;;5112926;28;20504;-76
2021/12/10 06:04:49;;;;;;;2.40;0.80;;;;;;;;;;5113133;28;20437;-76
2021/12/10 06:07:15;;;;;;;1.00;0.57;;;;;;;;;;5112804;28;20421;-75
2021/12/10 06:09:41;;;;;;;1.00;0.60;;;;;;;;;;5113293;28;20401;-76
2021/12/10 06:12:07;;;;;;;1.43;0.80;;;;;;;;;;5113036;28;20427;-76
2021/12/10 06:14:33;;;;;;;1.63;0.80;;;;;;;;;;5112656;28;20433;-76
2021/12/10 06:16:59;;;;;;;1.20;0.73;;;;;;;;;;5111523;28;20428;-76
2021/12/10 06:19:25;;;;;;;1.30;0.67;;;;;;;;;;5112528;27;20872;-76
2021/12/10 06:21:53;;;;;;;1.20;0.70;;;;;;;;;;5113308;28;20403;-76
2021/12/10 06:24:19;;;;;;;1.00;0.70;;;;;;;;;;5112663;28;20492;-76
2021/12/10 06:26:45;;;;;;;1.53;0.77;;;;;;;;;;5112425;28;20417;-76
2021/12/10 06:29:11;;;;;;;1.00;0.50;;;;;;;;;;5111346;28;20412;-76
2021/12/10 06:31:38;;;;;;;1.00;0.60;;;;;;;;;;5107961;28;20414;-77
2021/12/10 06:34:04;;;;;;;1.30;0.50;;;;;;;;;;5111325;28;20619;-77
2021/12/10 06:36:30;;;;;;;1.27;0.70;;;;;;;;;;5113028;28;20773;-75
2021/12/10 06:38:57;;;;;;;1.07;0.67;;;;;;;;;;5113026;28;20456;-76
2021/12/10 06:41:23;;;;;;;1.10;0.60;;;;;;;;;;5112432;28;20767;-76
2021/12/10 06:43:50;;;;;;;1.50;0.80;;;;;;;;;;5112381;28;20440;-76
2021/12/10 06:46:16;;;;;;;1.17;0.60;;;;;;;;;;5111385;28;20393;-75
2021/12/10 06:48:42;;;;;;;1.10;0.60;;;;;;;;;;5112511;27;20409;-76
2021/12/10 06:51:10;;;;;;;1.30;0.60;;;;;;;;;;5112479;28;20787;-76
2021/12/10 06:53:38;;;;;;;1.30;0.70;;;;;;;;;;5112716;28;20661;-76
2021/12/10 06:56:04;;;;;;;2.60;0.60;;;;;;;;;;5112951;28;20389;-76
2021/12/10 06:58:33;;;;;;;1.10;0.60;;;;;;;;;;5112619;28;20456;-77
2021/12/10 07:01:12;;;;;;;1.93;0.60;;;;;;;;;;5111974;28;20416;-76
2021/12/10 07:03:40;;;;;;;1.20;0.70;;;;;;;;;;5112669;28;20425;-77
2021/12/10 07:06:06;;;;;;;4.20;0.80;;;;;;;;;;5110936;28;20413;-76
2021/12/10 07:08:34;;;;;;;2.10;0.90;;;;;;;;;;5112573;28;20401;-76
2021/12/10 07:11:00;;;;;;;1.53;0.80;;;;;;;;;;5110285;28;20442;-76
2021/12/10 07:13:30;;;;;;;1.70;0.83;;;;;;;;;;5112017;28;20409;-76
2021/12/10 07:15:56;;;;;;;1.20;0.73;;;;;;;;;;5110736;28;20420;-76
2021/12/10 07:18:23;;;;;;;2.50;0.90;;;;;;;;;;5110723;28;20839;-76
2021/12/10 07:20:52;;;;;;;2.20;0.90;;;;;;;;;;5111779;28;20405;-76
2021/12/10 07:23:19;;;;;;;4.43;0.93;;;;;;;;;;5112091;28;20403;-76
2021/12/10 07:25:46;;;;;;;3.67;0.90;;;;;;;;;;5112337;28;20931;-77
2021/12/10 07:28:13;;;;;;;3.17;1.17;;;;;;;;;;5112168;28;20436;-76
2021/12/10 07:30:39;;;;;;;1.33;0.80;;;;;;;;;;5111634;28;20404;-76
2021/12/10 07:33:06;;;;;;;3.40;1.00;;;;;;;;;;5109694;28;20433;-77
2021/12/10 07:35:32;;;;;;;3.53;0.87;;;;;;;;;;5108675;28;20466;-77
2021/12/10 07:37:59;;;;;;;4.00;0.90;;;;;;;;;;5106770;28;20696;-77
2021/12/10 07:40:26;;;;;;;1.87;1.00;;;;;;;;;;5111367;28;20416;-76
2021/12/10 07:42:53;;;;;;;14.83;1.07;;;;;;;;;;5111794;28;20433;-76
2021/12/10 07:45:19;;;;;;;2.60;1.00;;;;;;;;;;5111246;28;20485;-76
2021/12/10 07:47:48;;;;;;;2.20;0.77;;;;;;;;;;5105649;28;20429;-77
2021/12/10 07:50:16;;;;;;;2.80;0.80;;;;;;;;;;5111021;28;20466;-76
2021/12/10 07:52:44;;;;;;;2.70;1.00;;;;;;;;;;5109109;28;20421;-76
2021/12/10 07:55:11;;;;;;;2.30;1.00;;;;;;;;;;5112169;28;20436;-76
2021/12/10 07:57:38;;;;;;;3.20;0.80;;;;;;;;;;5112464;28;20502;-77
2021/12/10 08:00:05;;;;;;;1.50;0.80;;;;;;;;;;5115061;28;20401;-77
2021/12/10 08:02:31;;;;;;;3.40;1.07;;;;;;;;;;5114520;28;20401;-78
2021/12/10 08:04:57;;;;;;;2.17;1.13;;;;;;;;;;5115237;28;20421;-77
2021/12/10 08:07:25;;;;;;;2.17;1.10;;;;;;;;;;5114182;28;20753;-77
2021/12/10 08:09:51;;;;;;;2.20;0.70;;;;;;;;;;5114602;28;20473;-78
2021/12/10 08:12:18;;;;;;;2.50;0.60;;;;;;;;;;5109441;28;20412;-77
2021/12/10 08:14:46;;;;;;;1.63;1.00;;;;;;;;;;5113751;28;20437;-77
2021/12/10 08:17:12;;;;;;;1.10;0.70;;;;;;;;;;5115013;28;20456;-78
2021/12/10 08:19:38;;;;;;;1.50;0.83;;;;;;;;;;5114767;28;20439;-78
2021/12/10 08:22:05;;;;;;;0.90;0.57;;;;;;;;;;5115073;28;20401;-77
2021/12/10 08:24:31;;;;;;;1.30;0.70;;;;;;;;;;5114690;28;20474;-77
2021/12/10 08:26:57;;;;;;;1.50;0.80;;;;;;;;;;5113650;28;20444;-77
2021/12/10 08:29:25;;;;;;;1.50;0.90;;;;;;;;;;5114458;28;20896;-77
2021/12/10 08:31:52;;;;;;;2.17;1.07;;;;;;;;;;5113449;28;20413;-77
2021/12/10 08:34:18;;;;;;;2.60;0.90;;;;;;;;;;5114673;28;20428;-77
2021/12/10 08:36:44;;;;;;;1.40;0.90;;;;;;;;;;5114764;28;20398;-77
2021/12/10 08:39:11;;;;;;;1.33;0.80;;;;;;;;;;5114403;28;20448;-78
2021/12/10 08:41:38;;;;;;;1.10;0.60;;;;;;;;;;5114679;28;20409;-78
2021/12/10 08:44:05;;;;;;;1.00;0.60;;;;;;;;;;5114330;28;20494;-78
2021/12/10 08:46:31;;;;;;;1.40;0.80;;;;;;;;;;5113366;28;20447;-78
2021/12/10 08:48:59;;;;;;;1.40;0.70;;;;;;;;;;5114466;28;20409;-78
2021/12/10 08:51:33;;;;;;;1.83;0.70;;;;;;;;;;5114038;28;20409;-78
2021/12/10 08:54:00;;;;;;;1.40;0.80;;;;;;;;;;5114265;28;20427;-77
2021/12/10 08:56:27;;;;;;;1.70;1.00;;;;;;;;;;5114208;28;20415;-77
2021/12/10 08:58:53;;;;;;;1.10;0.67;;;;;;;;;;5114308;28;20539;-77
2021/12/10 09:01:22;;;;;;;2.13;0.80;;;;;;;;;;5113853;28;20405;-77
2021/12/10 09:03:50;;;;;;;1.60;0.80;;;;;;;;;;5114021;28;20908;-78
2021/12/10 09:06:17;;;;;;;1.20;0.90;;;;;;;;;;5113159;28;20394;-78
2021/12/10 09:08:43;;;;;;;1.00;0.60;;;;;;;;;;5113891;28;20409;-78
2021/12/10 09:11:10;;;;;;;2.33;0.70;;;;;;;;;;5113625;28;20408;-78
2021/12/10 09:13:36;;;;;;;1.97;0.97;;;;;;;;;;5112740;28;20775;-78
2021/12/10 09:16:05;;;;;;;1.53;0.70;;;;;;;;;;5114122;28;20544;-78
2021/12/10 09:18:31;;;;;;;1.10;0.70;;;;;;;;;;5113807;28;20947;-78
2021/12/10 09:20:58;;;;;;;1.30;0.60;;;;;;;;;;5113831;28;20415;-78
2021/12/10 09:23:25;;;;;;;1.40;0.73;;;;;;;;;;5112607;28;20807;-78
2021/12/10 09:25:53;;;;;;;1.90;0.80;;;;;;;;;;5113824;28;20407;-77
2021/12/10 09:28:19;;;;;;;1.20;0.70;;;;;;;;;;5113873;28;20446;-78
2021/12/10 09:30:47;;;;;;;1.00;0.70;;;;;;;;;;5113299;28;20401;-78
2021/12/10 09:33:13;;;;;;;2.03;0.90;;;;;;;;;;5112377;28;20406;-78
2021/12/10 09:35:39;;;;;;;3.27;0.70;;;;;;;;;;5114180;28;20742;-78
2021/12/10 09:38:06;;;;;;;1.80;0.90;;;;;;;;;;5113548;28;20497;-77
2021/12/10 09:40:35;;;;;;;1.87;0.80;;;;;;;;;;5113103;28;20417;-77
2021/12/10 09:43:02;;;;;;;2.17;0.90;;;;;;;;;;5113518;28;20404;-77
2021/12/10 09:45:29;;;;;;;1.27;0.73;;;;;;;;;;5108549;22;20490;-76
2021/12/10 09:47:55;;;;;;;3.70;1.00;;;;;;;;;;5054445;28;20456;-75
2021/12/10 09:50:24;;;;;;;1.17;0.80;;;;;;;;;;5072245;28;20403;-76
2021/12/10 09:52:51;;;;;;;2.20;1.03;;;;;;;;;;5072525;28;20407;-76
2021/12/10 09:55:18;;;;;;;3.60;1.10;;;;;;;;;;5063755;28;20423;-76
2021/12/10 09:57:46;;;;;;;1.90;1.00;;;;;;;;;;5072680;28;20863;-74
2021/12/10 10:00:16;;;;;;;7.33;1.30;;;;;;;;;;5072020;28;20410;-75
2021/12/10 10:02:42;;;;;;;11.50;1.53;;;;;;;;;;5072349;28;21144;-75
2021/12/10 10:05:09;;;;;;;3.10;1.20;;;;;;;;;;5072224;28;20419;-75
2021/12/10 10:07:35;;;;;;;1.53;0.93;;;;;;;;;;5072503;28;20913;-75
2021/12/10 10:10:13;;;;;;;6.67;1.07;;;;;;;;;;5071965;28;20403;-75
2021/12/10 10:12:40;;;;;;;10.90;1.00;;;;;;;;;;5072304;28;20409;-75
2021/12/10 10:15:10;;;;;;;1.43;0.70;;;;;;;;;;5071856;28;20426;-75
2021/12/10 10:17:36;;;;;;;11.70;1.17;;;;;;;;;;5071657;28;20454;-75
2021/12/10 10:20:03;;;;;;;2.93;1.10;;;;;;;;;;5071646;28;20403;-75
2021/12/10 10:22:29;;;;;;;11.30;1.00;;;;;;;;;;5087670;28;20464;-76
2021/12/10 10:24:56;;;;;;;5.40;1.03;;;;;;;;;;5071869;28;20917;-76
2021/12/10 10:27:28;;;;;;;1.40;0.80;;;;;;;;;;5072038;28;20407;-75
2021/12/10 10:29:58;;;;;;;1.80;0.80;;;;;;;;;;5071664;28;20771;-76
2021/12/10 10:32:25;;;;;;;3.00;1.00;;;;;;;;;;5071771;28;20407;-75
2021/12/10 10:34:53;;;;;;;1.00;0.70;;;;;;;;;;5071712;28;20567;-75
2021/12/10 10:37:20;;;;;;;1.27;0.60;;;;;;;;;;5071736;28;20464;-76
2021/12/10 10:39:47;;;;;;;1.10;0.70;;;;;;;;;;5086998;28;20901;-76
2021/12/10 10:42:16;;;;;;;1.07;0.67;;;;;;;;;;5071763;28;20478;-76
2021/12/10 10:44:43;;;;;;;1.20;0.80;;;;;;;;;;5071499;28;20438;-76
2021/12/10 10:47:09;;;;;;;2.07;0.80;;;;;;;;;;5071568;28;20405;-76
2021/12/10 10:49:37;;;;;;;3.10;0.87;;;;;;;;;;5071236;28;20406;-76
2021/12/10 10:52:19;;;;;;;1.40;0.60;;;;;;;;;;5071500;28;20426;-75
2021/12/10 10:54:46;;;;;;;0.90;0.50;;;;;;;;;;5071503;28;20423;-76
2021/12/10 10:57:14;;;;;;;1.00;0.50;;;;;;;;;;5071420;28;20476;-76
2021/12/10 10:59:41;;;;;;;1.10;0.67;;;;;;;;;;5086669;28;20415;-76
2021/12/10 11:02:09;;;;;;;0.90;0.60;;;;;;;;;;5071379;28;20913;-76
2021/12/10 11:04:42;;;;;;;1.10;0.60;;;;;;;;;;5086797;28;20583;-76
2021/12/10 11:07:19;;;;;;;1.30;0.70;;;;;;;;;;5071413;28;20398;-76
2021/12/10 11:09:52;;;;;;;1.20;0.80;;;;;;;;;;5086551;28;20410;-76
2021/12/10 11:12:29;;;;;;;1.10;0.60;;;;;;;;;;5071418;28;20395;-76
2021/12/10 11:14:57;;;;;;;1.63;0.80;;;;;;;;;;5071303;28;20430;-76
2021/12/10 11:17:33;;;;;;;1.20;0.60;;;;;;;;;;5071329;28;20457;-76
2021/12/10 11:19:59;;;;;;;0.90;0.50;;;;;;;;;;5071051;28;20398;-76
2021/12/10 11:22:25;;;;;;;1.27;0.60;;;;;;;;;;5071260;28;20750;-75
2021/12/10 11:24:55;;;;;;;1.00;0.70;;;;;;;;;;5071096;28;20427;-76
2021/12/10 11:27:27;;;;;;;1.27;0.80;;;;;;;;;;5086727;28;20929;-76
2021/12/10 11:29:53;;;;;;;2.57;0.90;;;;;;;;;;5071594;28;20833;-76
2021/12/10 11:32:33;;;;;;;2.23;1.00;;;;;;;;;;5075856;28;20474;-78
2021/12/10 11:35:09;;;;;;;1.57;0.70;;;;;;;;;;5075676;28;20877;-79
2021/12/10 11:37:44;;;;;;;1.30;0.80;;;;;;;;;;5076424;28;20457;-78
2021/12/10 11:40:25;;;;;;;1.80;0.87;;;;;;;;;;5076163;28;20406;-77
2021/12/10 11:42:58;;;;;;;3.93;1.53;;;;;;;;;;5075176;28;20394;-76
2021/12/10 11:45:44;;;;;;;3.00;1.60;;;;;;;;;;5090362;28;20504;-76
2021/12/10 11:48:13;;;;;;;3.17;1.23;;;;;;;;;;5075202;28;20588;-76
2021/12/10 11:50:47;;;;;;;4.33;1.50;;;;;;;;;;5074736;28;20923;-76
2021/12/10 11:53:15;;;;;;;3.13;1.27;;;;;;;;;;5074936;28;20754;-76
2021/12/10 11:55:55;;;;;;;2.13;1.07;;;;;;;;;;5074673;28;20422;-76
2021/12/10 11:58:21;;;;;;;5.33;1.03;;;;;;;;;;5074642;28;20895;-76
2021/12/10 12:00:47;;;;;;;3.80;1.83;;;;;;;;;;5074405;28;20782;-76
2021/12/10 12:03:13;;;;;;;10.13;2.50;;;;;;;;;;5073500;28;20495;-76
2021/12/10 12:05:40;;;;;;;5.90;2.73;;;;;;;;;;5073481;28;20921;-76
2021/12/10 12:08:08;;;;;;;4.37;1.57;;;;;;;;;;5074350;28;20857;-76
2021/12/10 12:10:38;;;;;;;3.73;2.10;;;;;;;;;;5073671;28;20407;-76
2021/12/10 12:15:44;;;;;;;4.43;2.00;;;;;;;;;;5073750;28;20833;-76
2021/12/10 12:18:29;;;;;;;9.30;2.83;;;;;;;;;;5075598;28;20462;-77
2021/12/10 12:27:08;;;;;;;8.00;2.63;;;;;;;;;;5046075;28;20414;-77
2021/12/10 12:29:35;;;;;;;16.37;3.37;;;;;;;;;;5053997;28;20431;-77
2021/12/10 12:32:01;;;;;;;11.73;3.37;;;;;;;;;;5054292;28;20403;-77
2021/12/10 12:34:28;;;;;;;7.07;3.17;;;;;;;;;;5064632;28;20422;-77
2021/12/10 12:37:02;;;;;;;5.57;2.30;;;;;;;;;;5074243;28;20426;-77
2021/12/10 12:39:28;;;;;;;7.87;2.73;;;;;;;;;;5071490;28;20948;-77
2021/12/10 12:41:54;;;;;;;2.47;1.50;;;;;;;;;;5073638;28;21107;-77
2021/12/10 12:44:30;;;;;;;3.20;1.40;;;;;;;;;;5073693;28;20450;-77
2021/12/10 12:47:15;;;;;;;2.40;1.00;;;;;;;;;;5073969;28;20398;-77
2021/12/10 12:50:07;;;;;;;3.57;1.53;;;;;;;;;;5073340;28;20399;-77
2021/12/10 12:52:39;;;;;;;6.70;1.50;;;;;;;;;;5057890;28;20415;-77
2021/12/10 12:55:17;;;;;;;4.67;1.50;;;;;;;;;;5072693;28;20833;-76
2021/12/10 12:57:46;;;;;;;5.80;1.77;;;;;;;;;;5084090;28;20540;-76
2021/12/10 13:00:15;;;;;;;6.40;1.70;;;;;;;;;;5093291;28;20405;-77
2021/12/10 13:02:41;;;;;;;3.20;1.47;;;;;;;;;;5063648;28;20415;-77
2021/12/10 13:05:09;;;;;;;4.80;1.80;;;;;;;;;;5053207;28;20957;-77
2021/12/10 13:07:37;;;;;;;2.90;1.20;;;;;;;;;;5051956;28;20941;-77
2021/12/10 13:10:04;;;;;;;5.30;1.90;;;;;;;;;;5061979;28;20423;-76
2021/12/10 13:15:21;;;;;;;6.07;1.60;;;;;;;;;;5067530;28;20426;-77
2021/12/10 13:17:49;;;;;;;4.60;1.60;;;;;;;;;;5053093;28;20477;-77
2021/12/10 13:20:20;;;;;;;4.37;1.80;;;;;;;;;;5052899;28;20407;-77
2021/12/10 13:22:47;;;;;;;4.70;1.57;;;;;;;;;;5068308;28;20747;-77
2021/12/10 13:25:16;;;;;;;2.60;1.40;;;;;;;;;;5071631;28;20434;-77
2021/12/10 13:27:42;;;;;;;3.03;1.50;;;;;;;;;;5065185;28;20408;-77
2021/12/10 13:30:11;;;;;;;3.53;1.40;;;;;;;;;;5058285;28;20423;-77
2021/12/10 13:32:37;;;;;;;3.00;1.00;;;;;;;;;;5072848;28;20494;-77
2021/12/10 13:35:04;;;;;;;4.07;1.60;;;;;;;;;;5072774;28;20427;-77
2021/12/10 13:37:30;;;;;;;1.73;1.00;;;;;;;;;;5072831;28;20483;-76
2021/12/10 13:39:59;;;;;;;3.80;1.43;;;;;;;;;;5072354;28;20411;-76
2021/12/10 13:42:26;;;;;;;2.40;1.03;;;;;;;;;;5072789;28;20407;-76
2021/12/10 13:44:55;;;;;;;4.57;1.57;;;;;;;;;;5072619;28;20474;-77
2021/12/10 13:47:32;;;;;;;2.90;1.13;;;;;;;;;;5072896;28;20497;-77
2021/12/10 13:50:01;;;;;;;6.13;1.50;;;;;;;;;;5072605;28;20405;-77
2021/12/10 13:52:35;;;;;;;2.60;0.90;;;;;;;;;;5072144;28;20399;-76
2021/12/10 13:55:01;;;;;;;3.40;1.27;;;;;;;;;;5072465;28;20488;-77
2021/12/10 13:57:27;;;;;;;2.30;0.90;;;;;;;;;;5071036;28;20489;-77
2021/12/10 13:59:58;;;;;;;2.97;1.27;;;;;;;;;;5071260;28;20951;-77
2021/12/10 14:02:36;;;;;;;3.70;1.40;;;;;;;;;;5070909;28;20419;-77
2021/12/10 14:05:21;;;;;;;3.30;1.20;;;;;;;;;;5079778;28;20426;-77
2021/12/10 14:07:56;;;;;;;2.20;1.10;;;;;;;;;;5074437;28;20434;-77
2021/12/10 14:10:23;;;;;;;4.60;1.40;;;;;;;;;;5071594;28;20781;-77
2021/12/10 14:12:50;;;;;;;1.70;0.97;;;;;;;;;;5071957;28;20403;-77
2021/12/10 14:15:49;;;;;;;2.27;1.20;;;;;;;;;;5071677;28;20461;-77
2021/12/10 14:18:21;;;;;;;3.20;1.50;;;;;;;;;;5068013;28;20459;-77
2021/12/10 14:20:50;;;;;;;6.37;3.20;;;;;;;;;;5052668;28;20458;-78
2021/12/10 14:23:20;;;;;;;4.60;1.53;;;;;;;;;;5086666;28;20409;-78
2021/12/10 14:25:50;;;;;;;4.97;1.43;;;;;;;;;;5086690;28;20441;-79
2021/12/10 14:28:18;;;;;;;1.90;0.90;;;;;;;;;;5072460;28;20426;-80
2021/12/10 14:30:51;;;;;;;3.50;1.30;;;;;;;;;;5082165;28;20600;-82
2021/12/10 14:33:44;;;;;;;2.30;1.20;;;;;;;;;;5079361;28;20414;-82
2021/12/10 14:36:11;;;;;;;3.07;1.27;;;;;;;;;;5064964;28;20431;-83
2021/12/10 14:38:40;;;;;;;8.00;1.30;;;;;;;;;;5065077;28;20462;-81
2021/12/10 14:41:12;;;;;;;3.30;1.43;;;;;;;;;;5088219;28;20417;-82
2021/12/10 14:43:38;;;;;;;8.20;1.50;;;;;;;;;;5073945;28;20407;-82
2021/12/10 14:46:07;;;;;;;2.53;1.00;;;;;;;;;;5071539;28;20443;-79
2021/12/10 14:48:34;;;;;;;4.00;1.10;;;;;;;;;;5071544;28;20410;-79
2021/12/10 14:51:02;;;;;;;2.53;1.10;;;;;;;;;;5071185;28;20403;-79
2021/12/10 14:53:34;;;;;;;3.07;1.47;;;;;;;;;;5072837;28;20426;-79
2021/12/10 14:56:24;;;;;;;15.73;2.47;;;;;;;;;;5071552;28;20423;-79
2021/12/10 14:59:05;;;;;;;9.50;2.53;;;;;;;;;;5063400;28;20471;-78
2021/12/10 15:01:32;;;;;;;6.67;1.50;;;;;;;;;;5070857;28;20419;-79
2021/12/10 15:04:01;;;;;;;11.00;2.40;;;;;;;;;;5071209;28;20414;-79
2021/12/10 15:06:28;;;;;;;11.90;2.50;;;;;;;;;;5055208;28;20564;-79
2021/12/10 15:08:59;;;;;;;7.50;1.77;;;;;;;;;;5050042;28;20424;-78
2021/12/10 15:11:25;;;;;;;15.13;1.50;;;;;;;;;;5051524;28;20415;-79